Time;durP1;ratioP1;P1;durP2;ratioP2;P2;SDS_P1;SDS_P2;PMS_P1;PMS_P2;Temp;Humidity;BMP_temperature;BMP_pressure;BME280_temperature;BME280_humidity;BME280_pressure;Samples;Min_cycle;Max_cycle;Signal;HPM_P1;HPM_P2
2022/04/10 00:02:10;;;;;;;7.43;3.90;;;3.40;99.90;;;;;;5146013;27;20112;-59
2022/04/10 00:04:35;;;;;;;13.68;4.25;;;3.40;99.90;;;;;;5140810;27;20237;-59
2022/04/10 00:07:01;;;;;;;10.23;3.90;;;3.40;99.90;;;;;;5148872;27;20030;-59
2022/04/10 00:09:26;;;;;;;14.85;4.10;;;3.40;99.90;;;;;;5148077;27;20114;-60
2022/04/10 00:11:51;;;;;;;16.00;4.78;;;3.40;99.90;;;;;;5148960;27;20434;-59
2022/04/10 00:14:17;;;;;;;12.82;4.20;;;3.40;99.90;;;;;;5147750;27;20015;-60
2022/04/10 00:16:42;;;;;;;19.02;5.10;;;3.40;99.90;;;;;;5147487;27;20493;-59
2022/04/10 00:19:08;;;;;;;12.02;4.10;;;3.30;99.90;;;;;;5148060;27;20038;-59
2022/04/10 00:21:33;;;;;;;12.05;4.78;;;3.40;99.90;;;;;;5147094;27;20037;-59
2022/04/10 00:23:59;;;;;;;17.30;4.30;;;3.40;99.90;;;;;;5149143;27;20026;-59
2022/04/10 00:26:25;;;;;;;9.95;4.07;;;3.40;99.90;;;;;;5149757;27;20022;-59
2022/04/10 00:28:56;;;;;;;15.50;4.45;;;3.40;99.90;;;;;;5152016;27;20060;-59
2022/04/10 00:31:22;;;;;;;25.73;6.68;;;3.50;99.90;;;;;;5150107;27;20450;-59
2022/04/10 00:33:47;;;;;;;11.95;4.05;;;3.50;99.90;;;;;;5143922;27;20314;-59
2022/04/10 00:36:13;;;;;;;13.20;4.00;;;3.50;99.90;;;;;;5152828;27;20106;-59
2022/04/10 00:38:38;;;;;;;14.43;4.68;;;3.50;99.90;;;;;;5150874;27;20027;-59
2022/04/10 00:41:04;;;;;;;9.88;3.47;;;3.50;99.90;;;;;;5152783;27;20054;-59
2022/04/10 00:43:34;;;;;;;12.80;3.58;;;3.50;99.90;;;;;;5152843;27;20065;-59
2022/04/10 00:46:00;;;;;;;5.38;2.70;;;3.40;99.90;;;;;;5152504;27;20054;-59
2022/04/10 00:48:26;;;;;;;13.65;3.10;;;3.50;99.90;;;;;;5152367;27;20113;-59
2022/04/10 00:53:38;;;;;;;13.02;3.90;;;3.40;99.90;;;;;;5152348;27;20099;-59
2022/04/10 00:56:05;;;;;;;20.20;4.05;;;3.40;99.90;;;;;;5152517;27;20018;-59
2022/04/10 00:58:31;;;;;;;12.93;3.67;;;3.40;99.90;;;;;;5151805;27;20473;-59
2022/04/10 01:00:56;;;;;;;13.73;3.65;;;3.40;99.90;;;;;;5151318;27;20039;-59
2022/04/10 01:03:22;;;;;;;13.90;4.68;;;3.30;99.90;;;;;;5139627;27;20826;-59
2022/04/10 01:05:48;;;;;;;11.80;4.50;;;3.40;99.90;;;;;;5151583;27;20147;-59
2022/04/10 01:08:14;;;;;;;15.70;4.30;;;3.40;99.90;;;;;;5150753;27;20023;-59
2022/04/10 01:10:41;;;;;;;17.67;5.43;;;3.40;99.90;;;;;;5150853;27;20041;-59
2022/04/10 01:13:07;;;;;;;21.60;6.22;;;3.40;99.90;;;;;;5151395;27;20026;-59
2022/04/10 01:15:33;;;;;;;18.00;5.55;;;3.50;99.90;;;;;;5151677;27;20022;-59
2022/04/10 01:17:59;;;;;;;14.73;5.72;;;3.50;99.90;;;;;;5151358;27;20018;-59
2022/04/10 01:20:25;;;;;;;24.23;5.93;;;3.60;99.90;;;;;;5151057;27;20027;-59
2022/04/10 01:22:51;;;;;;;13.57;5.20;;;3.60;99.90;;;;;;5149966;27;20069;-59
2022/04/10 01:25:17;;;;;;;14.40;4.47;;;3.60;99.90;;;;;;5150101;27;20479;-59
2022/04/10 01:27:42;;;;;;;12.50;4.32;;;3.70;99.90;;;;;;5151298;27;20053;-59
2022/04/10 01:30:10;;;;;;;13.98;5.05;;;3.70;99.90;;;;;;5150394;27;20648;-59
2022/04/10 01:32:36;;;;;;;15.02;5.43;;;3.70;99.90;;;;;;5143536;27;20038;-60
2022/04/10 01:35:03;;;;;;;10.38;4.47;;;3.70;99.90;;;;;;5145766;27;20282;-59
2022/04/10 01:37:31;;;;;;;19.33;4.53;;;3.70;99.90;;;;;;5145517;27;20112;-59
2022/04/10 01:39:57;;;;;;;15.30;5.60;;;3.70;99.90;;;;;;5141921;27;20014;-59
2022/04/10 01:42:23;;;;;;;14.68;4.88;;;3.80;99.90;;;;;;5150346;27;20551;-59
2022/04/10 01:44:48;;;;;;;14.43;4.72;;;3.80;99.90;;;;;;5150685;27;20081;-59
2022/04/10 01:47:14;;;;;;;22.33;4.93;;;3.70;99.90;;;;;;5151075;27;20019;-59
2022/04/10 01:49:39;;;;;;;17.85;4.90;;;3.60;99.90;;;;;;5150536;27;20042;-59
2022/04/10 01:52:05;;;;;;;14.23;4.55;;;3.60;99.90;;;;;;5151144;27;20026;-59
2022/04/10 01:54:31;;;;;;;17.05;5.70;;;3.60;99.90;;;;;;5151437;27;20026;-59
2022/04/10 01:56:57;;;;;;;20.23;6.45;;;3.70;99.90;;;;;;5151541;27;20018;-59
2022/04/10 01:59:22;;;;;;;16.02;4.25;;;3.60;99.90;;;;;;5151081;27;20015;-59
2022/04/10 02:01:48;;;;;;;18.45;4.55;;;3.60;99.90;;;;;;5151338;27;20387;-59
2022/04/10 02:04:15;;;;;;;11.60;3.95;;;3.50;99.90;;;;;;5150987;27;20019;-59
2022/04/10 02:06:41;;;;;;;16.77;4.63;;;3.60;99.90;;;;;;5151253;27;20147;-59
2022/04/10 02:09:07;;;;;;;20.48;5.10;;;3.60;99.90;;;;;;5139682;27;20492;-60
2022/04/10 02:11:33;;;;;;;15.30;5.18;;;3.60;99.90;;;;;;5149833;27;20029;-59
2022/04/10 02:13:58;;;;;;;19.25;4.85;;;3.70;99.90;;;;;;5150980;27;20019;-59
2022/04/10 02:16:24;;;;;;;14.23;4.45;;;3.70;99.90;;;;;;5151561;27;20079;-59
2022/04/10 02:18:50;;;;;;;14.60;5.22;;;3.70;99.90;;;;;;5150354;27;20019;-59
2022/04/10 02:21:16;;;;;;;15.32;3.90;;;3.70;99.90;;;;;;5150734;27;20018;-59
2022/04/10 02:23:41;;;;;;;9.85;3.58;;;3.80;99.90;;;;;;5149250;27;20071;-59
2022/04/10 02:26:10;;;;;;;11.60;4.30;;;3.80;99.90;;;;;;5150947;27;20030;-59
2022/04/10 02:28:36;;;;;;;10.23;3.53;;;3.70;99.90;;;;;;5150237;27;20061;-59
2022/04/10 02:31:02;;;;;;;18.13;3.78;;;3.70;99.90;;;;;;5150841;27;20495;-59
2022/04/10 02:33:27;;;;;;;9.18;3.55;;;3.70;99.90;;;;;;5150722;27;20054;-59
2022/04/10 02:35:53;;;;;;;18.75;4.88;;;3.60;99.90;;;;;;5150647;27;20723;-59
2022/04/10 02:38:19;;;;;;;16.05;4.47;;;3.70;99.90;;;;;;5139416;27;20019;-59
2022/04/10 02:40:44;;;;;;;12.90;4.25;;;3.60;99.90;;;;;;5141844;27;20022;-59
2022/04/10 02:43:10;;;;;;;12.65;4.03;;;3.60;99.90;;;;;;5149966;27;20027;-59
2022/04/10 02:45:37;;;;;;;15.18;4.55;;;3.60;99.90;;;;;;5149479;27;20035;-59
2022/04/10 02:48:02;;;;;;;11.50;4.05;;;3.50;99.90;;;;;;5150229;27;20026;-59
2022/04/10 02:50:28;;;;;;;17.83;4.97;;;3.40;99.90;;;;;;5146919;27;20027;-59
2022/04/10 02:52:54;;;;;;;15.15;4.70;;;3.40;99.90;;;;;;5150294;27;20023;-59
2022/04/10 02:55:20;;;;;;;22.10;4.82;;;3.50;99.90;;;;;;5150120;27;20287;-59
2022/04/10 02:57:45;;;;;;;16.50;4.70;;;3.50;99.90;;;;;;5150145;27;20425;-59
2022/04/10 03:00:11;;;;;;;14.50;5.43;;;3.50;99.90;;;;;;5149820;27;20053;-59
2022/04/10 03:02:40;;;;;;;18.08;5.47;;;3.60;99.90;;;;;;5148670;27;20068;-59
2022/04/10 03:05:09;;;;;;;15.98;5.38;;;3.60;99.90;;;;;;5148797;27;20042;-59
2022/04/10 03:07:35;;;;;;;16.60;5.70;;;3.60;99.90;;;;;;5139921;27;20018;-59
2022/04/10 03:10:02;;;;;;;22.52;5.93;;;3.50;99.90;;;;;;5140199;27;20060;-60
2022/04/10 03:12:27;;;;;;;18.02;5.00;;;3.50;99.90;;;;;;5149673;27;20030;-60
2022/04/10 03:14:53;;;;;;;11.93;4.40;;;3.50;99.90;;;;;;5149860;27;20019;-60
2022/04/10 03:17:18;;;;;;;16.48;4.85;;;3.40;99.90;;;;;;5148465;27;20679;-60
2022/04/10 03:19:43;;;;;;;16.83;5.18;;;3.50;99.90;;;;;;5149036;27;20047;-59
2022/04/10 03:22:09;;;;;;;14.88;5.13;;;3.40;99.90;;;;;;5149065;27;20391;-59
2022/04/10 03:24:35;;;;;;;19.23;5.85;;;3.40;99.90;;;;;;5150015;27;20087;-59
2022/04/10 03:27:00;;;;;;;18.10;6.82;;;3.30;99.90;;;;;;5149478;27;20022;-59
2022/04/10 03:29:25;;;;;;;25.05;6.57;;;3.40;99.90;;;;;;5148842;27;20031;-59
2022/04/10 03:31:51;;;;;;;26.65;7.32;;;3.40;99.90;;;;;;5124533;27;20042;-59
2022/04/10 03:34:17;;;;;;;18.85;6.93;;;3.40;99.90;;;;;;5119250;27;20027;-59
2022/04/10 03:36:42;;;;;;;29.77;7.40;;;3.40;99.90;;;;;;5119058;27;20030;-59
2022/04/10 03:39:08;;;;;;;21.67;6.93;;;3.50;99.90;;;;;;5127455;27;20075;-59
2022/04/10 03:41:34;;;;;;;20.42;6.63;;;3.50;99.90;;;;;;5127774;27;20065;-59
2022/04/10 03:43:59;;;;;;;20.20;7.10;;;3.50;99.90;;;;;;5129104;27;20035;-59
2022/04/10 03:46:25;;;;;;;17.42;7.20;;;3.50;99.90;;;;;;5127273;27;20050;-59
2022/04/10 03:48:50;;;;;;;23.65;7.50;;;3.50;99.90;;;;;;5127730;27;20300;-59
2022/04/10 03:51:16;;;;;;;25.17;7.10;;;3.60;99.90;;;;;;5127952;27;20532;-59
2022/04/10 03:53:41;;;;;;;23.73;7.57;;;3.60;99.90;;;;;;5128868;27;20029;-59
2022/04/10 03:56:07;;;;;;;20.05;7.57;;;3.60;99.90;;;;;;5123265;27;20027;-59
2022/04/10 03:58:33;;;;;;;19.58;7.40;;;3.70;99.90;;;;;;5125415;27;20047;-59
2022/04/10 04:00:58;;;;;;;18.35;6.93;;;3.70;99.90;;;;;;5121283;27;20453;-59
2022/04/10 04:03:24;;;;;;;17.05;6.55;;;3.70;99.90;;;;;;5123701;27;20480;-59
2022/04/10 04:05:49;;;;;;;16.50;5.95;;;3.70;99.90;;;;;;5123347;27;20062;-59
2022/04/10 04:08:18;;;;;;;15.38;5.97;;;3.80;99.90;;;;;;5116165;27;20484;-59
2022/04/10 04:10:43;;;;;;;20.05;6.15;;;3.80;99.90;;;;;;5116776;27;20285;-59
2022/04/10 04:13:08;;;;;;;12.73;6.45;;;3.80;99.90;;;;;;5117861;28;20011;-59
2022/04/10 04:15:34;;;;;;;19.85;6.18;;;3.80;99.90;;;;;;5119719;27;20043;-60
2022/04/10 04:18:00;;;;;;;16.63;5.35;;;3.80;99.90;;;;;;5117258;28;20016;-60
2022/04/10 04:20:25;;;;;;;12.45;6.03;;;3.80;99.90;;;;;;5116614;28;20019;-60
2022/04/10 04:22:51;;;;;;;12.40;4.85;;;3.80;99.90;;;;;;5117803;28;20031;-60
2022/04/10 04:25:17;;;;;;;15.95;5.45;;;3.80;99.90;;;;;;5117922;28;20044;-59
2022/04/10 04:27:42;;;;;;;14.30;5.25;;;3.70;99.90;;;;;;5117780;28;20043;-60
2022/04/10 04:30:08;;;;;;;14.35;4.82;;;3.80;99.90;;;;;;5115040;28;20016;-59
2022/04/10 04:32:33;;;;;;;10.15;4.25;;;3.80;99.90;;;;;;5117371;27;20019;-59
2022/04/10 04:34:59;;;;;;;25.65;5.32;;;3.80;99.90;;;;;;5117608;28;20035;-59
2022/04/10 04:37:24;;;;;;;14.98;4.45;;;3.80;99.90;;;;;;5117441;27;20519;-59
2022/04/10 04:39:50;;;;;;;17.35;5.38;;;3.80;99.90;;;;;;5130295;27;20184;-59
2022/04/10 04:42:15;;;;;;;16.63;4.45;;;3.80;99.90;;;;;;5148281;27;20108;-59
2022/04/10 04:44:41;;;;;;;23.92;4.72;;;3.80;99.90;;;;;;5148621;27;20067;-59
2022/04/10 04:47:06;;;;;;;20.75;5.13;;;3.80;99.90;;;;;;5148518;27;20027;-60
2022/04/10 04:49:32;;;;;;;24.92;4.65;;;3.90;99.90;;;;;;5147955;27;20031;-59
2022/04/10 04:51:57;;;;;;;14.57;4.15;;;3.80;99.90;;;;;;5148463;27;20039;-59
2022/04/10 04:54:23;;;;;;;16.02;4.13;;;3.80;99.90;;;;;;5148344;27;20019;-59
2022/04/10 04:56:49;;;;;;;14.73;4.22;;;3.80;99.90;;;;;;5148732;27;20015;-59
2022/04/10 04:59:14;;;;;;;12.85;4.32;;;3.80;99.90;;;;;;5147839;27;20023;-59
2022/04/10 05:01:43;;;;;;;13.35;4.07;;;3.90;99.90;;;;;;5148367;27;20447;-59
2022/04/10 05:04:09;;;;;;;11.40;4.85;;;3.90;99.90;;;;;;5148523;27;20467;-59
2022/04/10 05:06:36;;;;;;;18.38;4.20;;;3.90;99.90;;;;;;5147434;27;20023;-59
2022/04/10 05:09:01;;;;;;;16.73;5.10;;;3.90;99.90;;;;;;5134765;27;20062;-59
2022/04/10 05:11:27;;;;;;;18.85;4.88;;;3.90;99.90;;;;;;5146418;27;20062;-59
2022/04/10 05:13:52;;;;;;;11.82;4.72;;;3.90;99.90;;;;;;5150840;27;20077;-59
2022/04/10 05:16:18;;;;;;;19.83;4.50;;;3.90;99.90;;;;;;5150638;27;20019;-59
2022/04/10 05:18:44;;;;;;;20.67;5.93;;;3.80;99.90;;;;;;5151580;27;20015;-59
2022/04/10 05:21:10;;;;;;;18.27;4.95;;;3.80;99.90;;;;;;5151747;27;20432;-59
2022/04/10 05:23:35;;;;;;;15.43;5.03;;;3.90;99.90;;;;;;5150521;27;20396;-59
2022/04/10 05:26:01;;;;;;;13.77;5.53;;;3.90;99.90;;;;;;5151859;27;20026;-59
2022/04/10 05:28:26;;;;;;;21.40;5.13;;;3.90;99.90;;;;;;5150640;27;20023;-59
2022/04/10 05:30:52;;;;;;;15.10;5.43;;;3.90;99.90;;;;;;5151162;27;20027;-60
2022/04/10 05:33:18;;;;;;;16.80;5.03;;;3.90;99.90;;;;;;5146135;27;20034;-60
2022/04/10 05:35:43;;;;;;;13.00;4.50;;;3.90;99.90;;;;;;5130990;27;20019;-60
2022/04/10 05:38:09;;;;;;;18.75;4.80;;;3.90;99.90;;;;;;5133712;27;20056;-59
2022/04/10 05:40:34;;;;;;;16.33;4.70;;;3.90;99.90;;;;;;5142538;27;20537;-59
2022/04/10 05:43:00;;;;;;;16.60;4.65;;;4.00;99.90;;;;;;5148612;27;20030;-59
2022/04/10 05:45:26;;;;;;;14.13;4.70;;;4.00;99.90;;;;;;5116015;27;20110;-59
2022/04/10 05:47:52;;;;;;;20.98;5.30;;;4.10;99.90;;;;;;5119122;27;20023;-59
2022/04/10 05:50:18;;;;;;;12.93;4.53;;;4.10;99.90;;;;;;5120548;27;20024;-59
2022/04/10 05:52:45;;;;;;;18.95;4.95;;;4.10;99.90;;;;;;5118579;27;20035;-59
2022/04/10 05:55:13;;;;;;;13.70;4.07;;;4.20;99.90;;;;;;5119047;27;20110;-60
2022/04/10 05:57:39;;;;;;;14.98;4.00;;;4.30;99.90;;;;;;5119180;27;20265;-60
2022/04/10 06:00:07;;;;;;;21.88;3.80;;;4.40;99.90;;;;;;5118945;27;20019;-60
2022/04/10 06:02:33;;;;;;;11.15;3.53;;;4.40;99.90;;;;;;5118858;27;20019;-60
2022/04/10 06:05:00;;;;;;;15.20;3.85;;;4.30;99.90;;;;;;5119133;27;20046;-59
2022/04/10 06:07:26;;;;;;;16.60;2.95;;;4.20;99.90;;;;;;5116165;27;20030;-59
2022/04/10 06:09:51;;;;;;;16.30;4.28;;;4.20;99.90;;;;;;5123885;27;20027;-59
2022/04/10 06:12:17;;;;;;;14.75;3.85;;;4.10;99.90;;;;;;5117593;27;20031;-60
2022/04/10 06:14:42;;;;;;;14.10;4.25;;;4.10;99.90;;;;;;5124075;27;20031;-59
2022/04/10 06:17:08;;;;;;;12.02;3.95;;;4.10;99.90;;;;;;5130336;27;20525;-59
2022/04/10 06:19:34;;;;;;;14.35;5.13;;;4.10;99.90;;;;;;5129598;27;20031;-60
2022/04/10 06:22:00;;;;;;;16.92;4.85;;;4.10;99.90;;;;;;5130212;27;20031;-60
2022/04/10 06:24:27;;;;;;;12.23;4.03;;;4.10;99.90;;;;;;5129719;27;20019;-60
2022/04/10 06:26:53;;;;;;;21.05;5.57;;;4.20;99.90;;;;;;5129693;27;20023;-60
2022/04/10 06:29:20;;;;;;;17.85;4.78;;;4.30;99.90;;;;;;5127982;27;20059;-59
2022/04/10 06:31:45;;;;;;;18.85;5.38;;;4.30;99.90;;;;;;5129873;27;20111;-59
2022/04/10 06:34:11;;;;;;;24.35;5.80;;;4.20;99.90;;;;;;5127389;27;20528;-60
2022/04/10 06:36:37;;;;;;;20.10;4.63;;;4.30;99.90;;;;;;5126380;27;20030;-60
2022/04/10 06:39:03;;;;;;;19.75;4.20;;;4.20;99.90;;;;;;5134845;27;20015;-60
2022/04/10 06:41:29;;;;;;;17.35;5.10;;;4.30;99.90;;;;;;5148876;27;20105;-60
2022/04/10 06:43:54;;;;;;;14.85;4.32;;;4.30;99.90;;;;;;5150352;27;20027;-60
2022/04/10 06:46:20;;;;;;;19.90;4.00;;;4.30;99.90;;;;;;5148324;27;20505;-60
2022/04/10 06:48:45;;;;;;;17.10;3.67;;;4.50;99.90;;;;;;5118145;27;20024;-60
2022/04/10 06:51:11;;;;;;;26.33;4.35;;;4.60;99.90;;;;;;5118451;27;20032;-60
2022/04/10 06:53:36;;;;;;;25.15;7.15;;;4.80;99.90;;;;;;5116879;27;20051;-60
2022/04/10 06:56:02;;;;;;;17.23;4.03;;;4.90;99.90;;;;;;5109067;28;20214;-60
2022/04/10 06:58:28;;;;;;;17.05;3.75;;;4.90;99.90;;;;;;5109162;28;20019;-59
2022/04/10 07:00:53;;;;;;;23.08;4.07;;;5.00;99.90;;;;;;5108321;28;20648;-59
2022/04/10 07:03:19;;;;;;;25.67;3.95;;;5.10;99.90;;;;;;5108446;28;20032;-59
2022/04/10 07:05:44;;;;;;;14.57;4.38;;;5.20;99.90;;;;;;5108837;28;20058;-59
2022/04/10 07:08:10;;;;;;;18.77;4.13;;;5.30;99.90;;;;;;5123452;27;20026;-59
2022/04/10 07:10:38;;;;;;;13.57;4.55;;;5.40;99.90;;;;;;5140516;27;22433;-59
2022/04/10 07:13:04;;;;;;;16.65;4.13;;;5.40;99.90;;;;;;5149890;27;20054;-59
2022/04/10 07:15:30;;;;;;;13.70;4.50;;;5.60;99.90;;;;;;5149812;27;20128;-59
2022/04/10 07:17:56;;;;;;;23.10;4.13;;;5.60;99.90;;;;;;5149670;27;20164;-59
2022/04/10 07:20:22;;;;;;;21.55;3.80;;;5.60;99.90;;;;;;5148280;27;20011;-60
2022/04/10 07:25:32;;;;;;;16.80;3.53;;;5.70;99.90;;;;;;5148691;27;20072;-59
2022/04/10 07:27:57;;;;;;;18.80;4.75;;;5.80;99.90;;;;;;5149199;27;20172;-59
2022/04/10 07:30:23;;;;;;;14.35;3.45;;;6.00;99.90;;;;;;5148207;27;20022;-59
2022/04/10 07:32:56;;;;;;;13.27;3.58;;;6.20;99.90;;;;;;5147201;27;20015;-59
2022/04/10 07:35:22;;;;;;;14.00;3.88;;;6.50;99.90;;;;;;5145896;27;20019;-59
2022/04/10 07:37:48;;;;;;;13.25;3.83;;;6.70;99.90;;;;;;5143410;27;20015;-59
2022/04/10 07:40:14;;;;;;;14.15;3.92;;;6.80;99.90;;;;;;5138367;27;20247;-59
2022/04/10 07:42:43;;;;;;;14.20;3.35;;;6.90;99.90;;;;;;5146223;27;20026;-60
2022/04/10 07:45:10;;;;;;;9.40;3.05;;;6.80;99.90;;;;;;5148191;27;20071;-59
2022/04/10 07:47:36;;;;;;;18.30;3.75;;;6.70;99.90;;;;;;5149109;27;20026;-59
2022/04/10 07:50:02;;;;;;;18.65;4.18;;;6.70;99.90;;;;;;5148206;27;20023;-59
2022/04/10 07:52:28;;;;;;;16.45;3.90;;;6.80;99.90;;;;;;5147826;27;20071;-59
2022/04/10 07:54:54;;;;;;;13.10;4.13;;;6.90;99.90;;;;;;5148913;27;20022;-59
2022/04/10 07:57:20;;;;;;;23.63;3.92;;;6.90;99.90;;;;;;5148947;27;20104;-59
2022/04/10 07:59:45;;;;;;;14.07;3.88;;;6.90;99.90;;;;;;5148646;27;20461;-59
2022/04/10 08:02:11;;;;;;;13.88;4.40;;;6.70;99.90;;;;;;5149144;27;20027;-59
2022/04/10 08:04:38;;;;;;;12.00;2.83;;;6.80;99.90;;;;;;5148912;27;20423;-59
2022/04/10 08:07:03;;;;;;;26.27;4.68;;;6.80;99.90;;;;;;5148868;27;20076;-59
2022/04/10 08:09:29;;;;;;;15.88;3.67;;;6.80;99.90;;;;;;5136415;27;20674;-59
2022/04/10 08:11:55;;;;;;;14.10;3.60;;;7.10;99.90;;;;;;5147008;27;20027;-60
2022/04/10 08:14:20;;;;;;;16.45;3.28;;;7.20;99.90;;;;;;5147920;27;20403;-59
2022/04/10 08:16:46;;;;;;;23.20;5.35;;;7.40;99.90;;;;;;5148702;27;20023;-60
2022/04/10 08:19:11;;;;;;;13.02;4.18;;;7.50;99.90;;;;;;5148225;27;20023;-59
2022/04/10 08:21:37;;;;;;;10.05;3.20;;;7.30;99.90;;;;;;5148826;27;20037;-59
2022/04/10 08:24:03;;;;;;;12.55;2.95;;;7.10;99.90;;;;;;5148202;27;20129;-59
2022/04/10 08:26:28;;;;;;;11.18;3.38;;;7.50;99.90;;;;;;5148529;27;20048;-59
2022/04/10 08:28:54;;;;;;;13.35;3.13;;;7.80;99.90;;;;;;5148037;27;20029;-60
2022/04/10 08:31:20;;;;;;;15.45;3.03;;;8.20;99.90;;;;;;5148983;27;20026;-59
2022/04/10 08:33:46;;;;;;;11.25;2.83;;;8.30;99.90;;;;;;5148393;27;20029;-59
2022/04/10 08:36:12;;;;;;;11.13;2.92;;;8.30;99.90;;;;;;5148818;27;20022;-59
2022/04/10 08:38:37;;;;;;;10.15;2.70;;;8.20;99.90;;;;;;5139707;27;20365;-59
2022/04/10 08:41:03;;;;;;;8.20;2.38;;;8.10;99.90;;;;;;5143347;27;20027;-59
2022/04/10 08:43:29;;;;;;;16.65;3.95;;;8.00;99.90;;;;;;5148802;27;20260;-59
2022/04/10 08:45:58;;;;;;;11.77;2.80;;;8.10;99.90;;;;;;5148683;27;20168;-59
2022/04/10 08:48:26;;;;;;;9.93;2.75;;;8.90;99.90;;;;;;5149089;27;20034;-59
2022/04/10 08:50:54;;;;;;;13.40;3.63;;;9.60;98.60;;;;;;5151621;27;20027;-59
2022/04/10 08:53:24;;;;;;;5.00;2.13;;;9.70;97.20;;;;;;5151591;27;20019;-59
2022/04/10 08:55:50;;;;;;;12.15;3.22;;;10.10;98.00;;;;;;5152197;27;20027;-59
2022/04/10 08:58:15;;;;;;;13.02;3.15;;;10.10;96.60;;;;;;5150996;27;20026;-59
2022/04/10 09:00:43;;;;;;;14.98;2.80;;;9.50;95.20;;;;;;5149901;27;20030;-60
2022/04/10 09:03:08;;;;;;;12.80;2.80;;;8.90;95.30;;;;;;5150724;27;20490;-59
2022/04/10 09:05:34;;;;;;;15.75;3.28;;;8.60;97.20;;;;;;5150764;27;20050;-60
2022/04/10 09:08:18;;;;;;;11.32;2.95;;;8.40;97.60;;;;;;5148279;27;20405;-59
2022/04/10 09:11:04;;;;;;;7.50;2.40;;;8.60;97.00;;;;;;5141033;27;20177;-59
2022/04/10 09:13:29;;;;;;;9.73;2.38;;;10.20;95.20;;;;;;5152112;27;20054;-59
2022/04/10 09:16:22;;;;;;;11.13;3.03;;;12.00;91.50;;;;;;5152117;27;20053;-59
2022/04/10 09:19:01;;;;;;;7.85;2.05;;;13.20;87.10;;;;;;5120418;27;20488;-57
2022/04/10 09:21:36;;;;;;;6.43;2.30;;;14.10;79.50;;;;;;5121352;27;20031;-57
2022/04/10 09:24:07;;;;;;;6.25;1.98;;;14.80;70.70;;;;;;5125849;27;20102;-56
2022/04/10 09:26:50;;;;;;;9.18;2.20;;;15.10;72.80;;;;;;5131056;27;20160;-57
2022/04/10 09:29:21;;;;;;;7.53;2.55;;;14.80;71.90;;;;;;5130699;27;20023;-59
2022/04/10 09:31:48;;;;;;;10.32;2.45;;;14.20;71.00;;;;;;5130889;27;20343;-59
2022/04/10 09:34:21;;;;;;;7.82;2.20;;;13.00;71.00;;;;;;5130917;27;20055;-59
2022/04/10 09:36:57;;;;;;;6.55;2.45;;;11.90;76.10;;;;;;5131104;27;20061;-59
2022/04/10 09:39:35;;;;;;;9.02;2.45;;;11.00;77.60;;;;;;5138866;27;20429;-58
2022/04/10 09:42:10;;;;;;;17.17;3.33;;;10.10;80.20;;;;;;5151062;27;20023;-59
2022/04/10 09:44:40;;;;;;;9.20;1.98;;;9.50;83.40;;;;;;5150306;27;20510;-59
2022/04/10 09:47:08;;;;;;;14.40;2.50;;;9.40;83.70;;;;;;5151395;27;20029;-59
2022/04/10 09:49:41;;;;;;;6.47;2.13;;;10.20;84.00;;;;;;5150875;27;20058;-59
2022/04/10 09:52:11;;;;;;;6.75;2.25;;;11.40;82.90;;;;;;5151677;27;20716;-59
2022/04/10 09:54:51;;;;;;;6.18;2.33;;;12.10;79.40;;;;;;5149319;27;20075;-59
2022/04/10 09:57:18;;;;;;;9.38;2.95;;;11.70;76.00;;;;;;5151416;27;20075;-59
2022/04/10 09:59:49;;;;;;;4.88;2.08;;;11.10;76.80;;;;;;5150096;27;20256;-59
2022/04/10 10:02:17;;;;;;;6.88;2.55;;;10.40;79.70;;;;;;5150775;27;20452;-59
2022/04/10 10:04:46;;;;;;;10.57;2.67;;;10.00;83.30;;;;;;5133803;27;20161;-59
2022/04/10 10:07:16;;;;;;;7.97;2.35;;;9.90;83.10;;;;;;5117879;27;20030;-59
2022/04/10 10:09:43;;;;;;;9.30;2.17;;;9.50;84.20;;;;;;5124686;27;20098;-59
2022/04/10 10:12:09;;;;;;;12.68;2.50;;;9.10;86.10;;;;;;5116145;27;20049;-59
2022/04/10 10:14:37;;;;;;;7.68;2.33;;;8.90;87.50;;;;;;5109956;28;20432;-59
2022/04/10 10:17:04;;;;;;;5.75;2.20;;;9.60;90.00;;;;;;5109659;28;20026;-59
2022/04/10 10:19:34;;;;;;;7.30;2.00;;;10.80;88.90;;;;;;5108722;28;20042;-59
2022/04/10 10:22:02;;;;;;;8.68;2.05;;;12.20;80.00;;;;;;5108529;28;20473;-59
2022/04/10 10:24:33;;;;;;;5.28;1.90;;;12.60;76.10;;;;;;5109286;28;20276;-59
2022/04/10 10:27:16;;;;;;;;;;;12.30;77.20;;;;;;5109940;28;20427;-60
2022/04/10 10:30:10;;;;;;;6.30;2.10;;;11.20;78.20;;;;;;5108724;28;19938;-59
2022/04/10 10:32:44;;;;;;;6.80;1.80;;;10.40;81.60;;;;;;5123115;27;20027;-59
2022/04/10 10:35:12;;;;;;;5.90;2.10;;;9.40;89.30;;;;;;5128752;27;20011;-59
2022/04/10 10:37:52;;;;;;;7.53;2.30;;;10.10;92.00;;;;;;5117636;27;20023;-59
2022/04/10 10:40:19;;;;;;;6.17;1.67;;;11.90;88.30;;;;;;5136963;27;20484;-59
2022/04/10 10:42:45;;;;;;;5.63;1.77;;;13.40;81.10;;;;;;5140406;27;20035;-57
2022/04/10 10:45:30;;;;;;;5.40;2.53;;;14.60;77.20;;;;;;5128705;27;20030;-57
2022/04/10 10:48:21;;;;;;;9.60;2.55;;;16.50;73.00;;;;;;5126762;27;20039;-58
2022/04/10 10:50:46;;;;;;;4.72;2.03;;;18.50;59.60;;;;;;5127954;27;20027;-58
2022/04/10 10:53:12;;;;;;;7.40;2.20;;;19.50;57.40;;;;;;5128508;27;20449;-57
2022/04/10 10:55:44;;;;;;;3.78;1.92;;;19.90;55.50;;;;;;5128704;27;20027;-58
2022/04/10 10:58:14;;;;;;;2.80;1.60;;;19.80;54.50;;;;;;5128644;27;20062;-57
2022/04/10 11:00:39;;;;;;;5.88;1.90;;;19.20;50.90;;;;;;5127394;27;20026;-58
2022/04/10 11:03:09;;;;;;;6.47;2.22;;;18.50;51.90;;;;;;5126730;27;20023;-57
2022/04/10 11:05:36;;;;;;;6.40;2.17;;;17.20;52.00;;;;;;5126805;27;20053;-58
2022/04/10 11:08:05;;;;;;;6.65;1.88;;;15.80;55.50;;;;;;5121727;27;20096;-58
2022/04/10 11:10:35;;;;;;;6.05;1.85;;;15.20;58.60;;;;;;5121934;27;20012;-59
2022/04/10 11:13:03;;;;;;;2.95;1.15;;;15.50;57.40;;;;;;5128584;27;20118;-59
2022/04/10 11:15:31;;;;;;;6.38;1.88;;;16.00;54.40;;;;;;5126824;27;20034;-59
2022/04/10 11:18:21;;;;;;;4.57;1.92;;;15.20;57.90;;;;;;5129000;27;20019;-58
2022/04/10 11:20:54;;;;;;;4.32;2.10;;;14.80;57.40;;;;;;5117453;27;20028;-59
2022/04/10 11:23:20;;;;;;;4.90;1.90;;;13.60;59.80;;;;;;5117463;27;20097;-58
2022/04/10 11:25:52;;;;;;;4.90;1.98;;;12.70;62.20;;;;;;5120293;27;20041;-59
2022/04/10 11:28:18;;;;;;;5.53;1.58;;;12.10;64.60;;;;;;5125697;27;20535;-59
2022/04/10 11:30:46;;;;;;;6.80;1.90;;;11.80;66.70;;;;;;5134452;27;20054;-59
2022/04/10 11:33:13;;;;;;;3.60;1.73;;;11.20;67.80;;;;;;5145163;27;20072;-59
2022/04/10 11:35:40;;;;;;;5.38;1.70;;;11.00;71.30;;;;;;5149603;27;20019;-59
2022/04/10 11:38:11;;;;;;;7.97;1.92;;;11.70;69.60;;;;;;5135142;27;20024;-59
2022/04/10 11:40:42;;;;;;;5.25;1.63;;;13.10;66.80;;;;;;5138853;27;20034;-59
2022/04/10 11:43:12;;;;;;;8.10;1.98;;;12.80;64.30;;;;;;5148198;27;20026;-59
2022/04/10 11:45:38;;;;;;;11.95;2.00;;;13.50;63.20;;;;;;5149311;27;20114;-59
2022/04/10 11:48:05;;;;;;;6.72;1.88;;;14.00;60.50;;;;;;5149620;27;20411;-58
2022/04/10 11:50:32;;;;;;;5.38;1.73;;;13.70;61.80;;;;;;5148239;27;20048;-59
2022/04/10 11:53:03;;;;;;;5.82;1.60;;;13.20;62.60;;;;;;5148706;27;20107;-59
2022/04/10 11:55:32;;;;;;;3.70;1.35;;;13.00;65.00;;;;;;5149058;27;20025;-59
2022/04/10 11:57:58;;;;;;;4.32;1.60;;;12.50;63.40;;;;;;5149416;27;20019;-59
2022/04/10 12:00:25;;;;;;;4.75;1.60;;;12.30;65.70;;;;;;5147731;27;20023;-59
2022/04/10 12:02:53;;;;;;;5.72;1.55;;;12.60;66.10;;;;;;5148931;27;20060;-59
2022/04/10 12:05:26;;;;;;;5.40;1.67;;;12.20;63.30;;;;;;5149151;27;20092;-59
2022/04/10 12:08:02;;;;;;;5.32;1.30;;;11.90;62.60;;;;;;5139515;27;20053;-58
2022/04/10 12:10:28;;;;;;;6.15;1.73;;;11.20;63.80;;;;;;5136273;27;20114;-60
2022/04/10 12:12:54;;;;;;;6.75;1.58;;;10.70;65.60;;;;;;5148540;27;20499;-59
2022/04/10 12:15:20;;;;;;;7.90;2.25;;;10.60;71.20;;;;;;5148294;27;20506;-60
2022/04/10 12:17:46;;;;;;;9.73;1.92;;;11.10;70.90;;;;;;5148070;27;20054;-59
2022/04/10 12:20:12;;;;;;;5.53;1.80;;;11.10;70.00;;;;;;5148369;27;20018;-59
2022/04/10 12:22:38;;;;;;;7.32;1.80;;;10.90;71.60;;;;;;5151184;27;20054;-58
2022/04/10 12:25:05;;;;;;;5.82;1.75;;;10.70;72.20;;;;;;5152955;27;20491;-59
2022/04/10 12:27:32;;;;;;;6.60;2.05;;;10.30;75.50;;;;;;5138320;27;20045;-60
2022/04/10 12:29:58;;;;;;;4.63;2.17;;;10.20;76.50;;;;;;5121289;27;20483;-59
2022/04/10 12:32:25;;;;;;;4.53;1.75;;;10.10;79.90;;;;;;5121764;27;20050;-59
2022/04/10 12:34:53;;;;;;;5.28;1.92;;;10.20;80.50;;;;;;5120275;27;20031;-60
2022/04/10 12:37:19;;;;;;;9.13;2.47;;;10.70;79.30;;;;;;5121596;27;20011;-59
2022/04/10 12:39:48;;;;;;;5.78;1.80;;;11.50;81.10;;;;;;5123903;27;20037;-60
2022/04/10 12:42:21;;;;;;;6.30;1.83;;;12.10;78.50;;;;;;5128137;27;20016;-60
2022/04/10 12:44:57;;;;;;;3.92;2.00;;;12.40;77.50;;;;;;5123941;27;20022;-60
2022/04/10 12:47:41;;;;;;;7.05;1.77;;;12.40;74.00;;;;;;5127551;27;20094;-59
2022/04/10 12:50:08;;;;;;;4.43;1.63;;;12.30;73.90;;;;;;5117635;27;20428;-59
2022/04/10 12:52:34;;;;;;;6.07;1.73;;;12.80;74.90;;;;;;5111597;28;20466;-59
2022/04/10 12:55:00;;;;;;;4.75;2.40;;;12.90;71.70;;;;;;5110786;28;20329;-59